createdAt,value
2019-03-16T00:03:59.228Z,1.85
2019-03-16T00:08:04.420Z,2.52
2019-03-16T00:12:08.977Z,2.30
2019-03-16T00:16:14.883Z,2.12
2019-03-16T00:20:19.875Z,2.22
2019-03-16T00:24:24.445Z,1.82
2019-03-16T00:28:29.110Z,2.15
2019-03-16T00:32:33.920Z,2.42
2019-03-16T00:36:38.821Z,2.00
2019-03-16T00:40:43.493Z,2.70
2019-03-16T00:44:48.398Z,2.00
2019-03-16T00:48:53.314Z,2.95
2019-03-16T00:52:58.512Z,2.40
2019-03-16T00:57:03.120Z,1.95
2019-03-16T01:01:08.375Z,3.00
2019-03-16T01:05:13.439Z,3.90
2019-03-16T01:09:18.353Z,2.20
2019-03-16T01:13:22.979Z,2.75
2019-03-16T01:17:28.635Z,2.35
2019-03-16T01:21:33.616Z,2.98
2019-03-16T01:25:38.319Z,3.00
2019-03-16T01:29:43.373Z,2.12
2019-03-16T01:33:48.654Z,3.00
2019-03-16T01:37:53.265Z,2.90
2019-03-16T01:41:57.909Z,2.58
2019-03-16T01:46:03.100Z,2.85
2019-03-16T01:50:08.467Z,2.45
2019-03-16T01:54:13.039Z,2.67
2019-03-16T01:58:17.740Z,2.90
2019-03-16T02:02:22.674Z,2.55
2019-03-16T02:06:27.687Z,2.87
2019-03-16T02:10:32.498Z,2.77
2019-03-16T02:14:37.084Z,2.85
2019-03-16T02:18:42.171Z,2.80
2019-03-16T02:22:46.776Z,2.83
2019-03-16T02:26:51.849Z,3.08
2019-03-16T02:30:56.435Z,2.90
2019-03-16T02:35:01.014Z,2.50
2019-03-16T02:39:07.370Z,2.70
2019-03-16T02:43:12.329Z,2.17
2019-03-16T02:47:16.962Z,2.67
2019-03-16T02:51:21.578Z,2.80
2019-03-16T02:55:26.628Z,2.65
2019-03-16T02:59:31.228Z,2.50
2019-03-16T03:03:35.855Z,2.27
2019-03-16T03:07:40.440Z,3.00
2019-03-16T03:11:45.039Z,2.95
2019-03-16T03:15:49.954Z,2.45
2019-03-16T03:19:54.544Z,2.55
2019-03-16T03:23:59.113Z,3.20
2019-03-16T03:28:04.090Z,2.85
2019-03-16T03:32:08.953Z,2.80
2019-03-16T03:36:14.873Z,3.35
2019-03-16T03:40:19.438Z,3.35
2019-03-16T03:44:24.144Z,2.98
2019-03-16T03:48:29.082Z,2.45
2019-03-16T03:52:34.325Z,2.70
2019-03-16T03:56:39.608Z,2.95
2019-03-16T04:00:44.275Z,2.25
2019-03-16T04:04:50.192Z,3.10
2019-03-16T04:08:55.093Z,2.47
2019-03-16T04:12:59.752Z,2.95
2019-03-16T04:17:07.793Z,2.98
2019-03-16T04:21:13.446Z,2.35
2019-03-16T04:25:18.155Z,2.95
2019-03-16T04:29:25.510Z,2.80
2019-03-16T04:33:30.328Z,2.85
2019-03-16T04:37:35.362Z,2.42
2019-03-16T04:41:40.235Z,2.37
2019-03-16T04:45:44.973Z,3.02
2019-03-16T04:49:50.194Z,2.75
2019-03-16T04:53:55.236Z,3.35
2019-03-16T04:58:00.283Z,2.33
2019-03-16T05:02:05.122Z,2.47
2019-03-16T05:06:10.448Z,2.22
2019-03-16T05:10:15.527Z,2.65
2019-03-16T05:14:20.829Z,3.22
2019-03-16T05:18:26.374Z,2.92
2019-03-16T05:22:32.679Z,2.62
2019-03-16T05:26:37.856Z,3.00
2019-03-16T05:30:42.517Z,3.20
2019-03-16T05:34:56.461Z,2.30
2019-03-16T05:38:54.350Z,2.92
2019-03-16T05:42:59.268Z,2.77
2019-03-16T05:47:03.995Z,2.62
2019-03-16T05:51:08.608Z,2.60
2019-03-16T05:55:13.174Z,3.37
2019-03-16T05:59:17.747Z,2.92
2019-03-16T06:03:22.410Z,3.27
2019-03-16T06:07:27.013Z,2.80
2019-03-16T06:11:31.607Z,3.15
2019-03-16T06:15:37.623Z,3.65
2019-03-16T06:19:42.574Z,2.95
2019-03-16T06:23:47.167Z,2.70
2019-03-16T06:27:52.087Z,2.90
2019-03-16T06:31:56.792Z,2.75
2019-03-16T06:36:02.432Z,3.00
2019-03-16T06:40:08.454Z,3.87
2019-03-16T06:44:13.329Z,2.58
2019-03-16T06:48:18.009Z,3.10
2019-03-16T06:52:22.593Z,2.90
2019-03-16T06:56:28.425Z,3.35
2019-03-16T07:00:33.080Z,3.08
2019-03-16T07:04:38.905Z,2.45
2019-03-16T07:08:44.034Z,2.55
2019-03-16T07:12:50.471Z,2.92
2019-03-16T07:17:01.974Z,3.25
2019-03-16T07:21:01.700Z,2.70
2019-03-16T07:25:06.671Z,3.62
2019-03-16T07:29:11.711Z,3.10
2019-03-16T07:33:16.484Z,3.47
2019-03-16T07:37:21.327Z,2.90
2019-03-16T07:41:26.255Z,3.05
2019-03-16T07:45:30.819Z,3.45
2019-03-16T07:49:38.945Z,2.62
2019-03-16T07:53:43.091Z,3.10
2019-03-16T07:57:48.082Z,3.15
2019-03-16T08:01:52.725Z,2.35
2019-03-16T08:05:57.285Z,3.40
2019-03-16T08:10:03.439Z,3.15
2019-03-16T08:14:08.431Z,3.20
2019-03-16T08:18:14.127Z,3.10
2019-03-16T08:22:19.137Z,2.95
2019-03-16T08:26:23.713Z,3.47
2019-03-16T08:30:28.579Z,3.95
2019-03-16T08:34:33.611Z,2.70
2019-03-16T08:38:38.202Z,2.90
2019-03-16T08:42:43.213Z,3.42
2019-03-16T08:46:48.409Z,3.20
2019-03-16T08:50:53.611Z,3.17
2019-03-16T08:54:58.187Z,2.58
2019-03-16T08:59:03.388Z,3.00
2019-03-16T09:03:08.333Z,3.05
2019-03-16T09:07:13.133Z,3.90
2019-03-16T09:11:18.052Z,3.30
2019-03-16T09:15:22.776Z,2.92
2019-03-16T09:19:27.584Z,3.08
2019-03-16T09:23:32.501Z,3.20
2019-03-16T09:27:38.664Z,2.85
2019-03-16T09:31:43.480Z,2.72
2019-03-16T09:35:48.576Z,3.10
2019-03-16T09:39:53.461Z,2.70
2019-03-16T09:44:01.958Z,2.62
2019-03-16T09:48:06.506Z,2.42
2019-03-16T09:52:11.372Z,2.75
2019-03-16T09:56:16.513Z,2.85
2019-03-16T10:00:22.513Z,3.37
2019-03-16T10:04:28.122Z,3.10
2019-03-16T10:08:32.774Z,2.65
2019-03-16T10:12:37.550Z,3.08
2019-03-16T10:16:42.367Z,2.55
2019-03-16T10:20:47.911Z,2.90
2019-03-16T10:24:53.911Z,2.45
2019-03-16T10:28:59.255Z,2.20
2019-03-16T10:33:04.024Z,2.55
2019-03-16T10:37:08.696Z,2.30
2019-03-16T10:41:13.282Z,2.40
2019-03-16T10:45:17.916Z,2.60
2019-03-16T10:49:22.851Z,3.22
2019-03-16T10:53:28.027Z,2.27
2019-03-16T10:57:32.588Z,2.30
2019-03-16T11:01:37.330Z,2.42
2019-03-16T11:05:41.970Z,2.15
2019-03-16T11:09:46.588Z,2.15
2019-03-16T11:13:51.259Z,2.20
2019-03-16T11:17:56.298Z,2.15
2019-03-16T11:22:08.778Z,2.67
2019-03-16T11:26:13.756Z,1.62
2019-03-16T11:30:18.452Z,2.12
2019-03-16T11:34:23.457Z,2.62
2019-03-16T11:38:28.047Z,2.30
2019-03-16T11:42:32.998Z,1.80
2019-03-16T11:46:37.990Z,1.40
2019-03-16T11:50:43.929Z,1.40
2019-03-16T11:54:49.106Z,1.60
2019-03-16T11:58:53.883Z,1.62
2019-03-16T12:02:59.121Z,1.60
2019-03-16T12:07:03.762Z,1.42
2019-03-16T12:11:08.959Z,1.65
2019-03-16T12:15:14.747Z,1.45
2019-03-16T12:19:19.429Z,1.60
2019-03-16T12:23:24.693Z,1.90
2019-03-16T12:27:29.665Z,2.05
2019-03-16T12:31:37.569Z,2.47
2019-03-16T12:35:44.839Z,2.30
2019-03-16T12:39:53.501Z,3.02
2019-03-16T12:43:58.153Z,2.45
2019-03-16T12:48:03.409Z,1.75
2019-03-16T12:52:08.006Z,1.85
2019-03-16T12:56:12.619Z,2.92
2019-03-16T13:00:17.254Z,3.62
2019-03-16T13:04:22.140Z,4.00
2019-03-16T13:08:27.003Z,3.47
2019-03-16T13:12:31.949Z,3.30
2019-03-16T13:16:37.411Z,3.42
2019-03-16T13:20:42.655Z,3.85
2019-03-16T13:24:47.632Z,3.52
2019-03-16T13:28:52.932Z,3.50
2019-03-16T13:32:57.968Z,2.75
2019-03-16T13:37:02.847Z,2.30
2019-03-16T13:41:07.454Z,2.92
2019-03-16T13:45:12.180Z,3.22
2019-03-16T13:49:16.916Z,2.70
2019-03-16T13:53:21.592Z,2.30
2019-03-16T13:57:26.743Z,2.10
2019-03-16T14:01:31.880Z,1.57
2019-03-16T14:05:36.516Z,2.20
2019-03-16T14:09:41.590Z,2.00
2019-03-16T14:13:46.546Z,2.60
2019-03-16T14:17:52.088Z,1.80
2019-03-16T14:21:57.652Z,1.85
2019-03-16T14:26:06.514Z,1.80
2019-03-16T14:30:25.626Z,1.80
2019-03-16T14:34:18.799Z,3.20
2019-03-16T14:38:23.809Z,4.92
2019-03-16T14:42:28.568Z,4.22
2019-03-16T14:46:33.863Z,7.37
2019-03-16T14:50:38.796Z,6.12
2019-03-16T14:54:43.731Z,10.10
2019-03-16T14:58:49.438Z,4.03
2019-03-16T15:02:54.918Z,3.92
2019-03-16T15:07:00.757Z,4.17
2019-03-16T15:11:05.464Z,3.65
2019-03-16T15:15:11.317Z,3.60
2019-03-16T15:19:17.285Z,3.98
2019-03-16T15:23:22.467Z,3.67
2019-03-16T15:27:27.709Z,4.30
2019-03-16T15:31:32.624Z,5.15
2019-03-16T15:35:40.108Z,3.90
2019-03-16T15:39:45.098Z,3.60
2019-03-16T15:43:51.232Z,5.33
2019-03-16T15:47:56.149Z,5.40
2019-03-16T15:52:00.728Z,5.12
2019-03-16T15:56:05.415Z,7.03
2019-03-16T16:00:11.290Z,6.85
2019-03-16T16:04:16.593Z,7.83
2019-03-16T16:08:21.527Z,7.25
2019-03-16T16:12:26.990Z,10.32
2019-03-16T16:16:32.035Z,10.30
2019-03-16T16:20:38.555Z,9.00
2019-03-16T16:24:51.048Z,9.65
2019-03-16T16:28:55.691Z,9.05
2019-03-16T16:33:00.368Z,10.88
2019-03-16T16:37:05.220Z,10.43
2019-03-16T16:41:10.350Z,12.18
2019-03-16T16:45:15.194Z,14.00
2019-03-16T16:49:19.762Z,15.18
2019-03-16T16:53:24.686Z,13.20
2019-03-16T16:57:29.930Z,13.75
2019-03-16T17:01:34.900Z,14.05
2019-03-16T17:05:39.859Z,14.13
2019-03-16T17:09:44.482Z,13.38
2019-03-16T17:13:49.396Z,14.28
2019-03-16T17:17:54.065Z,16.32
2019-03-16T17:21:58.978Z,16.65
2019-03-16T17:26:03.523Z,19.20
2019-03-16T17:30:13.419Z,17.50
2019-03-16T17:34:18.647Z,33.50
2019-03-16T17:38:23.984Z,19.17
2019-03-16T17:42:28.582Z,18.95
2019-03-16T17:46:33.497Z,20.90
2019-03-16T17:50:38.394Z,22.40
2019-03-16T17:54:43.087Z,20.88
2019-03-16T17:58:47.927Z,23.35
2019-03-16T18:02:52.837Z,23.20
2019-03-16T18:06:57.479Z,28.25
2019-03-16T18:11:02.351Z,25.45
2019-03-16T18:15:11.595Z,26.02
2019-03-16T18:19:16.704Z,29.35
2019-03-16T18:23:21.942Z,27.93
2019-03-16T18:27:28.546Z,31.15
2019-03-16T18:31:33.885Z,30.30
2019-03-16T18:35:39.357Z,36.10
2019-03-16T18:39:45.218Z,31.52
2019-03-16T18:43:50.988Z,34.73
2019-03-16T18:47:55.864Z,37.08
2019-03-16T18:52:00.642Z,32.05
2019-03-16T18:56:05.230Z,36.68
2019-03-16T19:00:11.131Z,32.93
2019-03-16T19:04:15.691Z,34.35
2019-03-16T19:08:20.971Z,38.73
2019-03-16T19:12:25.628Z,36.23
2019-03-16T19:16:30.574Z,35.00
2019-03-16T19:20:35.250Z,33.63
2019-03-16T19:24:40.578Z,33.35
2019-03-16T19:28:45.458Z,31.70
2019-03-16T19:32:50.603Z,36.03
2019-03-16T19:36:55.243Z,31.80
2019-03-16T19:40:59.831Z,31.37
2019-03-16T19:45:05.526Z,29.55
2019-03-16T19:49:10.534Z,31.25
2019-03-16T19:53:15.219Z,29.35
2019-03-16T19:57:20.068Z,29.55
2019-03-16T20:01:24.643Z,27.55
2019-03-16T20:05:36.636Z,27.60
2019-03-16T20:09:42.594Z,26.45
2019-03-16T20:13:48.020Z,25.95
2019-03-16T20:17:52.896Z,25.00
2019-03-16T20:21:57.864Z,25.50
2019-03-16T20:26:02.572Z,27.17
2019-03-16T20:30:10.002Z,26.02
2019-03-16T20:34:16.225Z,25.20
2019-03-16T20:38:21.041Z,25.37
2019-03-16T20:42:27.197Z,26.75
2019-03-16T20:46:31.856Z,26.60
2019-03-16T20:50:36.899Z,23.57
2019-03-16T20:54:41.592Z,21.23
2019-03-16T20:58:47.364Z,21.62
2019-03-16T21:02:52.109Z,19.40
2019-03-16T21:06:59.553Z,19.87
2019-03-16T21:11:06.426Z,22.02
2019-03-16T21:15:11.574Z,20.80
2019-03-16T21:19:17.723Z,19.52
2019-03-16T21:23:25.340Z,18.55
2019-03-16T21:27:31.271Z,14.70
2019-03-16T21:31:37.178Z,14.13
2019-03-16T21:35:47.682Z,13.18
2019-03-16T21:39:56.824Z,12.40
2019-03-16T21:44:02.845Z,12.43
2019-03-16T21:48:08.470Z,11.45
2019-03-16T21:52:15.815Z,7.90
2019-03-16T21:56:21.153Z,9.00
2019-03-16T22:00:27.498Z,8.08
2019-03-16T22:04:32.205Z,7.75
2019-03-16T22:08:36.761Z,7.12
2019-03-16T22:12:42.152Z,6.95
2019-03-16T22:16:47.056Z,6.60
2019-03-16T22:20:52.027Z,6.10
2019-03-16T22:24:56.957Z,5.72
2019-03-16T22:29:01.572Z,6.08
2019-03-16T22:33:06.230Z,7.00
2019-03-16T22:37:10.937Z,6.65
2019-03-16T22:41:16.290Z,6.25
2019-03-16T22:45:23.622Z,6.00
2019-03-16T22:49:28.480Z,5.42
2019-03-16T22:53:33.241Z,5.25
2019-03-16T22:57:38.356Z,5.35
2019-03-16T23:01:43.794Z,5.15
2019-03-16T23:05:49.487Z,4.47
2019-03-16T23:09:54.723Z,6.00
2019-03-16T23:13:59.852Z,5.12
2019-03-16T23:18:04.518Z,5.12
2019-03-16T23:22:09.994Z,5.00
2019-03-16T23:26:15.203Z,4.42
2019-03-16T23:30:19.944Z,5.33
2019-03-16T23:34:25.091Z,4.72
2019-03-16T23:38:30.361Z,4.12
2019-03-16T23:42:35.103Z,4.12
2019-03-16T23:46:40.298Z,4.00
2019-03-16T23:50:44.987Z,4.30
2019-03-16T23:54:50.312Z,4.40
2019-03-16T23:58:55.238Z,4.90
